EmailTwitter


Observations de surface / Canada / CYYZ (71624)

Régions: Québec | Canada | États-Unis | Europe | France | UK | Ailleurs
Station
Affichage
Infos & localisation pour CYYZ (71624) | Aide pour décoder les METARs

Observations prises le 2020-10-24 à 15H00 UTC à TORONTO A, ON (CYYZ)

Etat du ciel: partiellement nuageux.

Température: 6.0 Celsius

Point de rosée: 0.0 Celsius

Humidité relative: 65%

Facteur vent: 2.

Facteur vent (rafales): 1.

Vents: Nord à 24 km/h ou 13 noeuds.

Rafale du vent: 35 km/h ou 19 noeuds.

Pression au niveau moyen de la mer: 102.18 kilopascals.

Calage altimétrique: 102.13 kilopascals ou 30.16 pouces de mercure.

Visibilité horizontale: 15.00 milles terrestres ou 24.00 kilomètres.

Hauteur du plafond: 671 mètres ( 2200 pieds ).

Observation METAR:

CYYZ 241500Z 35013G19KT 15SM BKN022 BKN220 06/00 A3016 RMK SC5CI1 CI TR SLP218=